Ria Da Coruna — EAGB — position and weather

sailwx.info

Track history (hours):
 
Tides and Currents Weather Stations Pressure Air Temp Water Temp Dewpoint Dewpoint Depression Visibility Wind Speed Wind Dir Waves Ship Positions

Ria Da Coruna

Last reported at 2016-Jul-19 23:32 UTC. Time now 2016-Jul-25 04:19 UTC.
Position N 43°22' W 001°53'.

Length 28 m.

Type: Fishing. MMSI: 224068650.

Date/timePositionNaut miles runAvg speedWind from/ knotsBaromVisibWave heightAir tempDewpointWater temp
2016-Jul-19 23:32N 43°22' W 001°53'6 6.4
2016-Jul-19 22:34N 43°20' W 002°01'0 0.2
2016-Jul-19 21:05N 43°20' W 002°01'1 2.1
2016-Jul-19 20:33N 43°20' W 002°02'7 7.3
2016-Jul-19 19:34N 43°19' W 002°12'0 0.3
2016-Jul-19 18:34N 43°19' W 002°12'1 0.6
2016-Jul-19 17:33N 43°18' W 002°12'0 0.0
2016-Jul-19 16:33N 43°18' W 002°12'0 0.0
2016-Jul-19 15:31N 43°18' W 002°12'0 0.0
2016-Jul-19 14:33N 43°18' W 002°12'20 3.2
2016-Jul-19 08:28N 43°37' W 002°02'1010.9
2016-Jul-19 07:33N 43°46' W 001°57'28 6.8
2016-Jul-19 03:31N 44°11' W 001°42'1 1.3
2016-Jul-19 02:21N 44°12' W 001°41'23 6.0
2016-Jul-18 22:33N 43°52' W 001°54'32 2.2
2016-Jul-18 08:18N 43°22' W 002°08'0 0.3
2016-Jul-18 07:33N 43°22' W 002°07'4 3.4
2016-Jul-18 06:31N 43°20' W 002°11'  
2016-Jul-15 18:22N 43°18' W 002°12'0 0.0
2016-Jul-15 17:33N 43°18' W 002°12'0 0.0
2016-Jul-15 16:33N 43°18' W 002°12'  
Track history (hours):
 
Tides and Currents Weather Stations Pressure Air Temp Water Temp Dewpoint Dewpoint Depression Visibility Wind Speed Wind Dir Waves Ship Positions

Ria Da Coruna

Last reported at 2016-Jul-19 23:32 UTC. Time now 2016-Jul-25 04:19 UTC.
Position N 43°22' W 001°53'.

Length 28 m.

Type: Fishing. MMSI: 224068650.

Date/timePositionNaut miles runAvg speedWind from/ knotsBaromVisibWave heightAir tempDewpointWater temp
2016-Jul-19 23:32N 43°22' W 001°53'6 6.4
2016-Jul-19 22:34N 43°20' W 002°01'0 0.2
2016-Jul-19 21:05N 43°20' W 002°01'1 2.1
2016-Jul-19 20:33N 43°20' W 002°02'7 7.3
2016-Jul-19 19:34N 43°19' W 002°12'0 0.3
2016-Jul-19 18:34N 43°19' W 002°12'1 0.6
2016-Jul-19 17:33N 43°18' W 002°12'0 0.0
2016-Jul-19 16:33N 43°18' W 002°12'0 0.0
2016-Jul-19 15:31N 43°18' W 002°12'0 0.0
2016-Jul-19 14:33N 43°18' W 002°12'20 3.2
2016-Jul-19 08:28N 43°37' W 002°02'1010.9
2016-Jul-19 07:33N 43°46' W 001°57'28 6.8
2016-Jul-19 03:31N 44°11' W 001°42'1 1.3
2016-Jul-19 02:21N 44°12' W 001°41'23 6.0
2016-Jul-18 22:33N 43°52' W 001°54'32 2.2
2016-Jul-18 08:18N 43°22' W 002°08'0 0.3
2016-Jul-18 07:33N 43°22' W 002°07'4 3.4
2016-Jul-18 06:31N 43°20' W 002°11'  
2016-Jul-15 18:22N 43°18' W 002°12'0 0.0
2016-Jul-15 17:33N 43°18' W 002°12'0 0.0
2016-Jul-15 16:33N 43°18' W 002°12'  

Dump ship's entire track history